sensor_id;sensor_type;location;lat;lon;timestamp;temperature;humidity
45803;DHT22;31504;51.716;9.184;2022-08-23T00:01:54;24.10;51.60
45803;DHT22;31504;51.716;9.184;2022-08-23T00:04:55;24.10;51.70
45803;DHT22;31504;51.716;9.184;2022-08-23T00:07:56;24.10;51.60
45803;DHT22;31504;51.716;9.184;2022-08-23T00:10:57;24.10;51.60
45803;DHT22;31504;51.716;9.184;2022-08-23T00:14:00;24.10;51.60
45803;DHT22;31504;51.716;9.184;2022-08-23T00:17:02;24.10;51.50
45803;DHT22;31504;51.716;9.184;2022-08-23T00:20:04;24.10;51.60
45803;DHT22;31504;51.716;9.184;2022-08-23T00:23:05;24.10;51.60
45803;DHT22;31504;51.716;9.184;2022-08-23T00:26:06;24.10;51.60
45803;DHT22;31504;51.716;9.184;2022-08-23T00:29:06;24.10;51.60
45803;DHT22;31504;51.716;9.184;2022-08-23T00:32:10;24.10;51.70
45803;DHT22;31504;51.716;9.184;2022-08-23T00:35:12;24.10;51.60
45803;DHT22;31504;51.716;9.184;2022-08-23T00:38:13;24.10;51.60
45803;DHT22;31504;51.716;9.184;2022-08-23T00:41:14;24.10;51.60
45803;DHT22;31504;51.716;9.184;2022-08-23T00:44:27;24.10;51.60
45803;DHT22;31504;51.716;9.184;2022-08-23T00:47:47;24.10;51.60
45803;DHT22;31504;51.716;9.184;2022-08-23T00:54:10;24.10;51.50
45803;DHT22;31504;51.716;9.184;2022-08-23T00:57:16;24.10;51.60
45803;DHT22;31504;51.716;9.184;2022-08-23T01:00:18;24.10;51.50
45803;DHT22;31504;51.716;9.184;2022-08-23T01:03:21;24.10;51.60
45803;DHT22;31504;51.716;9.184;2022-08-23T01:07:01;24.10;51.50
45803;DHT22;31504;51.716;9.184;2022-08-23T01:10:10;24.10;51.50
45803;DHT22;31504;51.716;9.184;2022-08-23T01:13:21;24.10;51.60
45803;DHT22;31504;51.716;9.184;2022-08-23T01:16:29;24.10;51.50
45803;DHT22;31504;51.716;9.184;2022-08-23T01:19:39;24.10;51.60
45803;DHT22;31504;51.716;9.184;2022-08-23T01:25:41;24.10;51.60
45803;DHT22;31504;51.716;9.184;2022-08-23T01:28:42;24.10;51.60
45803;DHT22;31504;51.716;9.184;2022-08-23T01:31:43;24.10;51.70
45803;DHT22;31504;51.716;9.184;2022-08-23T01:34:43;24.10;51.70
45803;DHT22;31504;51.716;9.184;2022-08-23T01:37:44;24.10;51.80
45803;DHT22;31504;51.716;9.184;2022-08-23T01:40:45;24.10;51.80
45803;DHT22;31504;51.716;9.184;2022-08-23T01:43:47;24.10;51.90
45803;DHT22;31504;51.716;9.184;2022-08-23T01:46:47;24.10;52.00
45803;DHT22;31504;51.716;9.184;2022-08-23T01:49:48;24.10;52.10
45803;DHT22;31504;51.716;9.184;2022-08-23T01:52:48;24.10;52.10
45803;DHT22;31504;51.716;9.184;2022-08-23T01:55:49;24.10;52.20
45803;DHT22;31504;51.716;9.184;2022-08-23T01:58:49;24.10;52.30
45803;DHT22;31504;51.716;9.184;2022-08-23T02:01:50;24.10;52.30
45803;DHT22;31504;51.716;9.184;2022-08-23T02:04:52;24.10;52.40
45803;DHT22;31504;51.716;9.184;2022-08-23T02:07:53;24.10;52.50
45803;DHT22;31504;51.716;9.184;2022-08-23T02:10:54;24.10;52.60
45803;DHT22;31504;51.716;9.184;2022-08-23T02:13:58;24.10;52.60
45803;DHT22;31504;51.716;9.184;2022-08-23T02:16:58;24.10;52.70
45803;DHT22;31504;51.716;9.184;2022-08-23T02:19:59;24.10;52.80
45803;DHT22;31504;51.716;9.184;2022-08-23T02:23:01;24.10;52.80
45803;DHT22;31504;51.716;9.184;2022-08-23T02:26:02;24.10;52.80
45803;DHT22;31504;51.716;9.184;2022-08-23T02:29:03;24.10;52.90
45803;DHT22;31504;51.716;9.184;2022-08-23T02:32:04;24.10;52.90
45803;DHT22;31504;51.716;9.184;2022-08-23T02:35:05;24.10;52.90
45803;DHT22;31504;51.716;9.184;2022-08-23T02:38:08;24.10;53.00
45803;DHT22;31504;51.716;9.184;2022-08-23T02:41:09;24.10;53.10
45803;DHT22;31504;51.716;9.184;2022-08-23T02:44:10;24.10;53.10
45803;DHT22;31504;51.716;9.184;2022-08-23T02:47:11;24.10;53.20
45803;DHT22;31504;51.716;9.184;2022-08-23T02:50:11;24.10;53.20
45803;DHT22;31504;51.716;9.184;2022-08-23T02:53:12;24.10;53.40
45803;DHT22;31504;51.716;9.184;2022-08-23T02:56:13;24.10;53.40
45803;DHT22;31504;51.716;9.184;2022-08-23T02:59:14;24.10;53.50
45803;DHT22;31504;51.716;9.184;2022-08-23T03:02:15;24.10;53.50
45803;DHT22;31504;51.716;9.184;2022-08-23T03:05:15;24.10;53.60
45803;DHT22;31504;51.716;9.184;2022-08-23T03:08:16;24.10;53.70
45803;DHT22;31504;51.716;9.184;2022-08-23T03:11:19;24.10;53.70
45803;DHT22;31504;51.716;9.184;2022-08-23T03:14:23;24.10;53.60
45803;DHT22;31504;51.716;9.184;2022-08-23T03:17:24;24.10;53.70
45803;DHT22;31504;51.716;9.184;2022-08-23T03:20:25;24.10;53.70
45803;DHT22;31504;51.716;9.184;2022-08-23T03:23:25;24.10;53.70
45803;DHT22;31504;51.716;9.184;2022-08-23T03:26:26;24.00;53.60
45803;DHT22;31504;51.716;9.184;2022-08-23T03:29:26;24.10;53.70
45803;DHT22;31504;51.716;9.184;2022-08-23T03:32:27;24.00;53.60
45803;DHT22;31504;51.716;9.184;2022-08-23T03:35:28;24.10;53.60
45803;DHT22;31504;51.716;9.184;2022-08-23T03:38:29;24.00;53.50
45803;DHT22;31504;51.716;9.184;2022-08-23T03:41:30;24.00;53.40
45803;DHT22;31504;51.716;9.184;2022-08-23T03:44:30;24.00;53.30
45803;DHT22;31504;51.716;9.184;2022-08-23T03:47:30;24.00;53.20
45803;DHT22;31504;51.716;9.184;2022-08-23T03:50:31;24.00;53.20
45803;DHT22;31504;51.716;9.184;2022-08-23T03:53:31;24.00;53.20
45803;DHT22;31504;51.716;9.184;2022-08-23T03:56:35;24.00;53.10
45803;DHT22;31504;51.716;9.184;2022-08-23T03:59:39;24.00;53.10
45803;DHT22;31504;51.716;9.184;2022-08-23T04:02:40;24.00;53.10
45803;DHT22;31504;51.716;9.184;2022-08-23T04:05:40;24.00;53.10
45803;DHT22;31504;51.716;9.184;2022-08-23T04:08:42;24.00;53.10
45803;DHT22;31504;51.716;9.184;2022-08-23T04:11:43;24.00;53.00
45803;DHT22;31504;51.716;9.184;2022-08-23T04:14:45;24.00;53.00
45803;DHT22;31504;51.716;9.184;2022-08-23T04:17:46;24.00;53.10
45803;DHT22;31504;51.716;9.184;2022-08-23T04:20:46;24.00;53.20
45803;DHT22;31504;51.716;9.184;2022-08-23T04:23:48;24.00;53.20
45803;DHT22;31504;51.716;9.184;2022-08-23T04:26:48;24.00;53.70
45803;DHT22;31504;51.716;9.184;2022-08-23T04:29:49;24.00;53.10
45803;DHT22;31504;51.716;9.184;2022-08-23T04:32:50;24.00;53.00
45803;DHT22;31504;51.716;9.184;2022-08-23T04:35:51;24.00;52.90
45803;DHT22;31504;51.716;9.184;2022-08-23T04:38:52;23.90;52.90
45803;DHT22;31504;51.716;9.184;2022-08-23T04:41:52;24.00;52.90
45803;DHT22;31504;51.716;9.184;2022-08-23T04:45:11;24.00;52.90
45803;DHT22;31504;51.716;9.184;2022-08-23T04:48:12;24.00;52.90
45803;DHT22;31504;51.716;9.184;2022-08-23T04:51:13;24.00;52.90
45803;DHT22;31504;51.716;9.184;2022-08-23T04:54:14;24.00;52.90
45803;DHT22;31504;51.716;9.184;2022-08-23T04:57:14;23.90;52.80
45803;DHT22;31504;51.716;9.184;2022-08-23T05:00:16;23.90;52.70
45803;DHT22;31504;51.716;9.184;2022-08-23T05:03:16;23.90;52.70
45803;DHT22;31504;51.716;9.184;2022-08-23T05:06:17;23.90;52.70
45803;DHT22;31504;51.716;9.184;2022-08-23T05:09:18;23.90;52.70
45803;DHT22;31504;51.716;9.184;2022-08-23T05:12:19;23.90;52.70
45803;DHT22;31504;51.716;9.184;2022-08-23T05:15:19;23.90;52.70
45803;DHT22;31504;51.716;9.184;2022-08-23T05:18:20;23.90;52.60
45803;DHT22;31504;51.716;9.184;2022-08-23T05:21:22;23.90;52.60
45803;DHT22;31504;51.716;9.184;2022-08-23T05:24:23;23.90;53.00
45803;DHT22;31504;51.716;9.184;2022-08-23T05:27:24;23.90;52.70
45803;DHT22;31504;51.716;9.184;2022-08-23T05:30:24;24.00;52.70
45803;DHT22;31504;51.716;9.184;2022-08-23T05:33:26;24.00;52.80
45803;DHT22;31504;51.716;9.184;2022-08-23T05:36:26;23.90;52.70
45803;DHT22;31504;51.716;9.184;2022-08-23T05:39:27;23.90;52.70
45803;DHT22;31504;51.716;9.184;2022-08-23T05:42:28;24.00;52.80
45803;DHT22;31504;51.716;9.184;2022-08-23T05:45:28;24.00;52.80
45803;DHT22;31504;51.716;9.184;2022-08-23T05:48:30;24.00;52.70
45803;DHT22;31504;51.716;9.184;2022-08-23T05:51:33;23.90;52.70
45803;DHT22;31504;51.716;9.184;2022-08-23T05:54:34;24.00;52.70
45803;DHT22;31504;51.716;9.184;2022-08-23T05:57:36;24.00;52.80
45803;DHT22;31504;51.716;9.184;2022-08-23T06:00:37;24.00;52.70
45803;DHT22;31504;51.716;9.184;2022-08-23T06:03:37;24.00;52.70
45803;DHT22;31504;51.716;9.184;2022-08-23T06:06:40;24.00;52.70
45803;DHT22;31504;51.716;9.184;2022-08-23T06:09:40;24.00;52.80
45803;DHT22;31504;51.716;9.184;2022-08-23T06:12:41;24.00;52.80
45803;DHT22;31504;51.716;9.184;2022-08-23T06:15:43;24.00;52.80
45803;DHT22;31504;51.716;9.184;2022-08-23T06:18:45;24.00;52.90
45803;DHT22;31504;51.716;9.184;2022-08-23T06:21:46;24.00;52.90
45803;DHT22;31504;51.716;9.184;2022-08-23T06:24:47;24.00;52.90
45803;DHT22;31504;51.716;9.184;2022-08-23T06:27:47;24.00;52.90
45803;DHT22;31504;51.716;9.184;2022-08-23T06:30:48;24.00;52.90
45803;DHT22;31504;51.716;9.184;2022-08-23T06:33:48;24.00;52.90
45803;DHT22;31504;51.716;9.184;2022-08-23T06:36:52;24.00;52.90
45803;DHT22;31504;51.716;9.184;2022-08-23T06:39:53;24.00;52.90
45803;DHT22;31504;51.716;9.184;2022-08-23T06:42:57;24.00;52.90
45803;DHT22;31504;51.716;9.184;2022-08-23T06:49:08;24.00;52.90
45803;DHT22;31504;51.716;9.184;2022-08-23T06:52:08;24.00;52.90
45803;DHT22;31504;51.716;9.184;2022-08-23T06:55:09;24.00;53.00
45803;DHT22;31504;51.716;9.184;2022-08-23T06:58:09;24.00;53.00
45803;DHT22;31504;51.716;9.184;2022-08-23T07:01:12;24.00;53.00
45803;DHT22;31504;51.716;9.184;2022-08-23T07:04:19;24.00;53.00
45803;DHT22;31504;51.716;9.184;2022-08-23T07:07:20;24.00;53.20
45803;DHT22;31504;51.716;9.184;2022-08-23T07:10:21;24.00;53.00
45803;DHT22;31504;51.716;9.184;2022-08-23T07:13:22;24.00;52.90
45803;DHT22;31504;51.716;9.184;2022-08-23T07:16:23;24.00;53.00
45803;DHT22;31504;51.716;9.184;2022-08-23T07:19:28;24.00;53.00
45803;DHT22;31504;51.716;9.184;2022-08-23T07:22:29;24.00;53.10
45803;DHT22;31504;51.716;9.184;2022-08-23T07:25:30;24.00;53.00
45803;DHT22;31504;51.716;9.184;2022-08-23T07:28:31;24.00;53.00
45803;DHT22;31504;51.716;9.184;2022-08-23T07:31:36;24.00;53.00
45803;DHT22;31504;51.716;9.184;2022-08-23T07:34:37;24.00;53.00
45803;DHT22;31504;51.716;9.184;2022-08-23T07:37:37;24.00;53.00
45803;DHT22;31504;51.716;9.184;2022-08-23T07:40:39;24.00;53.00
45803;DHT22;31504;51.716;9.184;2022-08-23T07:43:40;24.00;53.00
45803;DHT22;31504;51.716;9.184;2022-08-23T07:46:42;24.00;53.00
45803;DHT22;31504;51.716;9.184;2022-08-23T07:49:43;24.00;53.00
45803;DHT22;31504;51.716;9.184;2022-08-23T07:52:44;24.00;53.00
45803;DHT22;31504;51.716;9.184;2022-08-23T07:55:44;24.00;53.00
45803;DHT22;31504;51.716;9.184;2022-08-23T07:58:46;24.00;53.00
45803;DHT22;31504;51.716;9.184;2022-08-23T08:01:46;24.00;52.90
45803;DHT22;31504;51.716;9.184;2022-08-23T08:04:47;24.00;52.90
45803;DHT22;31504;51.716;9.184;2022-08-23T08:07:47;24.00;52.90
45803;DHT22;31504;51.716;9.184;2022-08-23T08:10:53;24.00;52.90
45803;DHT22;31504;51.716;9.184;2022-08-23T08:13:54;24.00;52.90
45803;DHT22;31504;51.716;9.184;2022-08-23T08:16:55;24.00;52.90
45803;DHT22;31504;51.716;9.184;2022-08-23T08:19:57;24.00;52.90
45803;DHT22;31504;51.716;9.184;2022-08-23T08:22:58;24.00;52.90
45803;DHT22;31504;51.716;9.184;2022-08-23T08:26:04;24.00;52.90
45803;DHT22;31504;51.716;9.184;2022-08-23T08:29:05;24.00;52.90
45803;DHT22;31504;51.716;9.184;2022-08-23T08:32:06;24.00;52.90
45803;DHT22;31504;51.716;9.184;2022-08-23T08:35:08;24.00;52.80
45803;DHT22;31504;51.716;9.184;2022-08-23T08:38:09;24.00;52.80
45803;DHT22;31504;51.716;9.184;2022-08-23T08:41:24;24.10;52.80
45803;DHT22;31504;51.716;9.184;2022-08-23T08:48:06;24.00;52.70
45803;DHT22;31504;51.716;9.184;2022-08-23T08:51:27;24.00;52.70
45803;DHT22;31504;51.716;9.184;2022-08-23T08:54:31;24.00;52.70
45803;DHT22;31504;51.716;9.184;2022-08-23T08:57:44;24.10;52.80
45803;DHT22;31504;51.716;9.184;2022-08-23T09:00:45;24.10;52.70
45803;DHT22;31504;51.716;9.184;2022-08-23T09:03:46;24.10;52.70
45803;DHT22;31504;51.716;9.184;2022-08-23T09:07:22;24.00;52.70
45803;DHT22;31504;51.716;9.184;2022-08-23T09:16:49;24.10;52.70
45803;DHT22;31504;51.716;9.184;2022-08-23T09:19:55;24.00;52.70
45803;DHT22;31504;51.716;9.184;2022-08-23T09:26:27;24.10;52.70
45803;DHT22;31504;51.716;9.184;2022-08-23T09:29:33;24.10;52.50
45803;DHT22;31504;51.716;9.184;2022-08-23T09:32:36;24.10;52.40
45803;DHT22;31504;51.716;9.184;2022-08-23T09:35:37;24.10;52.50
45803;DHT22;31504;51.716;9.184;2022-08-23T09:38:37;24.10;52.50
45803;DHT22;31504;51.716;9.184;2022-08-23T09:41:49;24.10;52.40
45803;DHT22;31504;51.716;9.184;2022-08-23T09:44:50;24.10;52.20
45803;DHT22;31504;51.716;9.184;2022-08-23T09:47:51;24.10;52.20
45803;DHT22;31504;51.716;9.184;2022-08-23T09:50:52;24.10;52.10
45803;DHT22;31504;51.716;9.184;2022-08-23T09:54:08;24.10;52.30
45803;DHT22;31504;51.716;9.184;2022-08-23T09:57:10;24.10;51.90
45803;DHT22;31504;51.716;9.184;2022-08-23T10:06:30;24.10;52.50
45803;DHT22;31504;51.716;9.184;2022-08-23T10:09:32;24.20;51.30
45803;DHT22;31504;51.716;9.184;2022-08-23T10:12:33;24.20;51.30
45803;DHT22;31504;51.716;9.184;2022-08-23T10:19:02;24.20;51.70
45803;DHT22;31504;51.716;9.184;2022-08-23T10:22:18;24.20;51.80
45803;DHT22;31504;51.716;9.184;2022-08-23T10:25:28;24.20;51.80
45803;DHT22;31504;51.716;9.184;2022-08-23T10:28:47;24.10;51.70
45803;DHT22;31504;51.716;9.184;2022-08-23T10:38:56;24.20;51.50
45803;DHT22;31504;51.716;9.184;2022-08-23T10:42:26;24.20;51.70
45803;DHT22;31504;51.716;9.184;2022-08-23T10:45:34;24.20;52.20
45803;DHT22;31504;51.716;9.184;2022-08-23T10:48:37;24.10;51.80
45803;DHT22;31504;51.716;9.184;2022-08-23T10:51:43;24.20;51.20
45803;DHT22;31504;51.716;9.184;2022-08-23T10:54:48;24.20;52.00
45803;DHT22;31504;51.716;9.184;2022-08-23T10:58:01;24.20;50.50
45803;DHT22;31504;51.716;9.184;2022-08-23T11:01:02;24.20;50.50
45803;DHT22;31504;51.716;9.184;2022-08-23T11:04:13;24.20;50.60
45803;DHT22;31504;51.716;9.184;2022-08-23T11:07:36;24.20;52.50
45803;DHT22;31504;51.716;9.184;2022-08-23T11:10:45;24.20;51.10
45803;DHT22;31504;51.716;9.184;2022-08-23T11:13:51;24.20;52.40
45803;DHT22;31504;51.716;9.184;2022-08-23T11:16:59;24.30;50.00
45803;DHT22;31504;51.716;9.184;2022-08-23T11:20:04;24.30;50.20
45803;DHT22;31504;51.716;9.184;2022-08-23T11:29:38;24.30;52.20
45803;DHT22;31504;51.716;9.184;2022-08-23T11:32:41;24.20;51.20
45803;DHT22;31504;51.716;9.184;2022-08-23T11:35:51;24.40;51.30
45803;DHT22;31504;51.716;9.184;2022-08-23T11:44:55;24.40;51.90
45803;DHT22;31504;51.716;9.184;2022-08-23T11:58:28;24.40;51.30
45803;DHT22;31504;51.716;9.184;2022-08-23T12:01:33;24.50;49.40
45803;DHT22;31504;51.716;9.184;2022-08-23T12:04:50;24.50;51.20
45803;DHT22;31504;51.716;9.184;2022-08-23T12:10:57;24.60;48.80
45803;DHT22;31504;51.716;9.184;2022-08-23T12:14:30;24.60;51.00
45803;DHT22;31504;51.716;9.184;2022-08-23T12:20:28;24.60;51.20
45803;DHT22;31504;51.716;9.184;2022-08-23T12:23:29;24.50;48.90
45803;DHT22;31504;51.716;9.184;2022-08-23T12:29:58;24.60;51.20
45803;DHT22;31504;51.716;9.184;2022-08-23T12:36:47;24.70;49.20
45803;DHT22;31504;51.716;9.184;2022-08-23T12:39:55;24.70;48.30
45803;DHT22;31504;51.716;9.184;2022-08-23T12:46:09;24.60;49.20
45803;DHT22;31504;51.716;9.184;2022-08-23T12:49:31;24.60;51.80
45803;DHT22;31504;51.716;9.184;2022-08-23T12:52:34;24.50;50.10
45803;DHT22;31504;51.716;9.184;2022-08-23T12:55:43;24.60;48.20
45803;DHT22;31504;51.716;9.184;2022-08-23T12:58:52;24.60;48.40
45803;DHT22;31504;51.716;9.184;2022-08-23T13:01:53;24.60;49.90
45803;DHT22;31504;51.716;9.184;2022-08-23T13:04:57;24.70;48.00
45803;DHT22;31504;51.716;9.184;2022-08-23T13:08:08;24.80;47.70
45803;DHT22;31504;51.716;9.184;2022-08-23T13:11:11;25.00;47.30
45803;DHT22;31504;51.716;9.184;2022-08-23T13:14:24;24.80;51.20
45803;DHT22;31504;51.716;9.184;2022-08-23T13:20:25;25.00;50.40
45803;DHT22;31504;51.716;9.184;2022-08-23T13:23:29;25.00;48.70
45803;DHT22;31504;51.716;9.184;2022-08-23T13:26:37;25.00;48.70
45803;DHT22;31504;51.716;9.184;2022-08-23T13:29:48;25.00;48.30
45803;DHT22;31504;51.716;9.184;2022-08-23T13:33:15;24.90;46.80
45803;DHT22;31504;51.716;9.184;2022-08-23T13:36:19;25.00;48.20
45803;DHT22;31504;51.716;9.184;2022-08-23T13:39:20;24.90;45.90
45803;DHT22;31504;51.716;9.184;2022-08-23T13:42:54;25.00;46.40
45803;DHT22;31504;51.716;9.184;2022-08-23T13:45:54;25.10;45.60
45803;DHT22;31504;51.716;9.184;2022-08-23T13:49:01;25.20;46.00
45803;DHT22;31504;51.716;9.184;2022-08-23T13:52:08;25.10;48.20
45803;DHT22;31504;51.716;9.184;2022-08-23T13:55:09;25.20;47.50
45803;DHT22;31504;51.716;9.184;2022-08-23T13:58:15;25.10;46.00
45803;DHT22;31504;51.716;9.184;2022-08-23T14:01:18;25.00;46.80
45803;DHT22;31504;51.716;9.184;2022-08-23T14:04:19;24.90;46.90
45803;DHT22;31504;51.716;9.184;2022-08-23T14:07:20;25.00;46.40
45803;DHT22;31504;51.716;9.184;2022-08-23T14:10:21;25.20;45.90
45803;DHT22;31504;51.716;9.184;2022-08-23T14:13:23;25.30;46.00
45803;DHT22;31504;51.716;9.184;2022-08-23T14:16:30;25.30;45.50
45803;DHT22;31504;51.716;9.184;2022-08-23T14:19:31;25.20;45.70
45803;DHT22;31504;51.716;9.184;2022-08-23T14:22:31;25.20;45.70
45803;DHT22;31504;51.716;9.184;2022-08-23T14:25:32;25.00;49.00
45803;DHT22;31504;51.716;9.184;2022-08-23T14:28:33;24.90;49.80
45803;DHT22;31504;51.716;9.184;2022-08-23T14:31:33;25.00;48.70
45803;DHT22;31504;51.716;9.184;2022-08-23T14:34:34;25.00;46.00
45803;DHT22;31504;51.716;9.184;2022-08-23T14:37:34;25.10;45.80
45803;DHT22;31504;51.716;9.184;2022-08-23T14:40:35;25.00;46.80
45803;DHT22;31504;51.716;9.184;2022-08-23T14:43:35;25.10;46.10
45803;DHT22;31504;51.716;9.184;2022-08-23T14:46:36;25.20;46.00
45803;DHT22;31504;51.716;9.184;2022-08-23T14:49:36;25.20;46.10
45803;DHT22;31504;51.716;9.184;2022-08-23T14:52:40;25.10;46.50
45803;DHT22;31504;51.716;9.184;2022-08-23T14:55:41;25.10;47.00
45803;DHT22;31504;51.716;9.184;2022-08-23T14:58:42;25.10;48.90
45803;DHT22;31504;51.716;9.184;2022-08-23T15:01:45;25.20;47.60
45803;DHT22;31504;51.716;9.184;2022-08-23T15:04:46;25.10;46.50
45803;DHT22;31504;51.716;9.184;2022-08-23T15:07:47;25.20;46.00
45803;DHT22;31504;51.716;9.184;2022-08-23T15:10:47;25.30;45.80
45803;DHT22;31504;51.716;9.184;2022-08-23T15:13:51;25.20;46.40
45803;DHT22;31504;51.716;9.184;2022-08-23T15:16:52;25.30;46.00
45803;DHT22;31504;51.716;9.184;2022-08-23T15:19:52;25.30;46.30
45803;DHT22;31504;51.716;9.184;2022-08-23T15:22:53;25.40;45.20
45803;DHT22;31504;51.716;9.184;2022-08-23T15:25:54;25.40;45.00
45803;DHT22;31504;51.716;9.184;2022-08-23T15:28:54;25.40;44.80
45803;DHT22;31504;51.716;9.184;2022-08-23T15:31:55;25.40;44.80
45803;DHT22;31504;51.716;9.184;2022-08-23T15:34:55;25.40;45.00
45803;DHT22;31504;51.716;9.184;2022-08-23T15:37:56;25.40;45.10
45803;DHT22;31504;51.716;9.184;2022-08-23T15:40:57;25.40;45.00
45803;DHT22;31504;51.716;9.184;2022-08-23T15:43:58;25.30;45.00
45803;DHT22;31504;51.716;9.184;2022-08-23T15:46:58;25.30;45.20
45803;DHT22;31504;51.716;9.184;2022-08-23T15:50:00;25.30;44.70
45803;DHT22;31504;51.716;9.184;2022-08-23T15:53:00;25.40;45.20
45803;DHT22;31504;51.716;9.184;2022-08-23T15:56:01;25.30;45.10
45803;DHT22;31504;51.716;9.184;2022-08-23T15:59:02;25.30;45.00
45803;DHT22;31504;51.716;9.184;2022-08-23T16:02:03;25.30;45.90
45803;DHT22;31504;51.716;9.184;2022-08-23T16:05:05;25.20;45.80
45803;DHT22;31504;51.716;9.184;2022-08-23T16:08:07;25.20;45.90
45803;DHT22;31504;51.716;9.184;2022-08-23T16:11:09;25.20;45.70
45803;DHT22;31504;51.716;9.184;2022-08-23T16:14:11;25.20;45.50
45803;DHT22;31504;51.716;9.184;2022-08-23T16:17:12;25.30;45.70
45803;DHT22;31504;51.716;9.184;2022-08-23T16:20:14;25.20;46.20
45803;DHT22;31504;51.716;9.184;2022-08-23T16:23:14;25.20;46.20
45803;DHT22;31504;51.716;9.184;2022-08-23T16:26:20;25.20;45.70
45803;DHT22;31504;51.716;9.184;2022-08-23T16:29:21;25.20;45.70
45803;DHT22;31504;51.716;9.184;2022-08-23T16:32:22;25.20;45.80
45803;DHT22;31504;51.716;9.184;2022-08-23T16:35:23;25.20;45.60
45803;DHT22;31504;51.716;9.184;2022-08-23T16:38:23;25.20;45.10
45803;DHT22;31504;51.716;9.184;2022-08-23T16:41:24;25.20;45.70
45803;DHT22;31504;51.716;9.184;2022-08-23T16:44:25;25.30;46.10
45803;DHT22;31504;51.716;9.184;2022-08-23T16:47:25;25.30;45.90
45803;DHT22;31504;51.716;9.184;2022-08-23T16:50:26;25.30;45.60
45803;DHT22;31504;51.716;9.184;2022-08-23T16:53:26;25.30;45.50
45803;DHT22;31504;51.716;9.184;2022-08-23T16:56:27;25.30;46.00
45803;DHT22;31504;51.716;9.184;2022-08-23T16:59:28;25.30;45.50
45803;DHT22;31504;51.716;9.184;2022-08-23T17:02:33;25.30;45.10
45803;DHT22;31504;51.716;9.184;2022-08-23T17:05:34;25.30;45.80
45803;DHT22;31504;51.716;9.184;2022-08-23T17:08:35;25.30;45.20
45803;DHT22;31504;51.716;9.184;2022-08-23T17:11:36;25.20;45.70
45803;DHT22;31504;51.716;9.184;2022-08-23T17:14:37;25.20;45.40
45803;DHT22;31504;51.716;9.184;2022-08-23T17:17:38;25.20;45.60
45803;DHT22;31504;51.716;9.184;2022-08-23T17:20:39;25.20;45.70
45803;DHT22;31504;51.716;9.184;2022-08-23T17:23:39;25.20;45.40
45803;DHT22;31504;51.716;9.184;2022-08-23T17:26:40;25.10;45.70
45803;DHT22;31504;51.716;9.184;2022-08-23T17:29:41;25.10;45.70
45803;DHT22;31504;51.716;9.184;2022-08-23T17:32:42;25.10;46.40
45803;DHT22;31504;51.716;9.184;2022-08-23T17:35:43;25.10;45.50
45803;DHT22;31504;51.716;9.184;2022-08-23T17:38:44;25.10;46.10
45803;DHT22;31504;51.716;9.184;2022-08-23T17:41:45;25.10;45.50
45803;DHT22;31504;51.716;9.184;2022-08-23T17:44:46;25.10;45.60
45803;DHT22;31504;51.716;9.184;2022-08-23T17:47:47;25.10;46.10
45803;DHT22;31504;51.716;9.184;2022-08-23T17:50:48;25.10;46.40
45803;DHT22;31504;51.716;9.184;2022-08-23T17:53:49;25.10;45.50
45803;DHT22;31504;51.716;9.184;2022-08-23T17:56:49;25.10;45.70
45803;DHT22;31504;51.716;9.184;2022-08-23T17:59:50;25.10;45.60
45803;DHT22;31504;51.716;9.184;2022-08-23T18:02:51;25.10;45.70
45803;DHT22;31504;51.716;9.184;2022-08-23T18:05:52;25.10;45.60
45803;DHT22;31504;51.716;9.184;2022-08-23T18:08:53;25.10;45.70
45803;DHT22;31504;51.716;9.184;2022-08-23T18:11:54;25.10;45.50
45803;DHT22;31504;51.716;9.184;2022-08-23T18:14:55;25.10;45.60
45803;DHT22;31504;51.716;9.184;2022-08-23T18:17:57;25.10;45.70
45803;DHT22;31504;51.716;9.184;2022-08-23T18:21:06;25.10;45.70
45803;DHT22;31504;51.716;9.184;2022-08-23T18:24:07;25.10;45.90
45803;DHT22;31504;51.716;9.184;2022-08-23T18:27:08;25.10;46.00
45803;DHT22;31504;51.716;9.184;2022-08-23T18:30:28;25.10;46.10
45803;DHT22;31504;51.716;9.184;2022-08-23T18:33:28;25.00;46.30
45803;DHT22;31504;51.716;9.184;2022-08-23T18:36:30;25.00;46.40
45803;DHT22;31504;51.716;9.184;2022-08-23T18:39:30;25.00;46.40
45803;DHT22;31504;51.716;9.184;2022-08-23T18:42:34;25.00;46.40
45803;DHT22;31504;51.716;9.184;2022-08-23T18:45:35;25.00;46.80
45803;DHT22;31504;51.716;9.184;2022-08-23T18:48:38;25.00;46.80
45803;DHT22;31504;51.716;9.184;2022-08-23T18:51:39;25.00;47.00
45803;DHT22;31504;51.716;9.184;2022-08-23T18:54:40;25.00;47.10
45803;DHT22;31504;51.716;9.184;2022-08-23T18:57:40;24.90;47.30
45803;DHT22;31504;51.716;9.184;2022-08-23T19:00:42;24.90;47.70
45803;DHT22;31504;51.716;9.184;2022-08-23T19:03:42;24.90;48.00
45803;DHT22;31504;51.716;9.184;2022-08-23T19:06:43;24.90;48.30
45803;DHT22;31504;51.716;9.184;2022-08-23T19:09:44;24.90;48.50
45803;DHT22;31504;51.716;9.184;2022-08-23T19:12:45;24.80;48.60
45803;DHT22;31504;51.716;9.184;2022-08-23T19:15:45;24.80;48.80
45803;DHT22;31504;51.716;9.184;2022-08-23T19:18:46;24.80;48.90
45803;DHT22;31504;51.716;9.184;2022-08-23T19:21:47;24.80;49.30
45803;DHT22;31504;51.716;9.184;2022-08-23T19:24:49;24.80;49.60
45803;DHT22;31504;51.716;9.184;2022-08-23T19:27:50;24.80;49.80
45803;DHT22;31504;51.716;9.184;2022-08-23T19:30:50;24.80;50.00
45803;DHT22;31504;51.716;9.184;2022-08-23T19:33:51;24.80;50.10
45803;DHT22;31504;51.716;9.184;2022-08-23T19:36:51;24.80;50.30
45803;DHT22;31504;51.716;9.184;2022-08-23T19:39:53;24.70;50.30
45803;DHT22;31504;51.716;9.184;2022-08-23T19:42:53;24.80;50.40
45803;DHT22;31504;51.716;9.184;2022-08-23T19:45:54;24.70;50.40
45803;DHT22;31504;51.716;9.184;2022-08-23T19:48:55;24.70;50.50
45803;DHT22;31504;51.716;9.184;2022-08-23T19:51:56;24.70;50.60
45803;DHT22;31504;51.716;9.184;2022-08-23T19:54:58;24.70;50.60
45803;DHT22;31504;51.716;9.184;2022-08-23T19:57:58;24.70;50.90
45803;DHT22;31504;51.716;9.184;2022-08-23T20:00:59;24.70;51.00
45803;DHT22;31504;51.716;9.184;2022-08-23T20:04:00;24.70;51.10
45803;DHT22;31504;51.716;9.184;2022-08-23T20:07:02;24.70;51.30
45803;DHT22;31504;51.716;9.184;2022-08-23T20:10:05;24.60;51.40
45803;DHT22;31504;51.716;9.184;2022-08-23T20:13:05;24.60;51.50
45803;DHT22;31504;51.716;9.184;2022-08-23T20:16:06;24.60;51.50
45803;DHT22;31504;51.716;9.184;2022-08-23T20:19:07;24.60;51.70
45803;DHT22;31504;51.716;9.184;2022-08-23T20:22:08;24.60;51.70
45803;DHT22;31504;51.716;9.184;2022-08-23T20:25:27;24.60;51.90
45803;DHT22;31504;51.716;9.184;2022-08-23T20:28:29;24.60;52.20
45803;DHT22;31504;51.716;9.184;2022-08-23T20:31:33;24.50;52.20
45803;DHT22;31504;51.716;9.184;2022-08-23T20:34:35;24.60;52.30
45803;DHT22;31504;51.716;9.184;2022-08-23T20:37:37;24.50;52.30